Terminal Aerodrome Forecast
Issued by NWS

Home | Current Version | Previous Version | Text Only | Print | Product List | Glossary On
Versions: 1 2 3 4 5 6 7 8 9 10 11 12 13
000
FTUS45 KRIW 300523
TAFJAC
TAF
KJAC 300523Z 3006/0106 VRB12G20KT P6SM VCSH SCT070 BKN150
     FM300800 36006KT P6SM SCT100
     FM301700 30011KT P6SM VCSH SCT070 BKN090
     FM302000 31011G17KT P6SM VCTS SCT050CB BKN070
     FM010500 36008KT P6SM SCT100
      AMD LTD TO CLD VIS AND WIND=

USA.gov is the U.S. government's official web portal to all federal, state and local government web resources and services.